Artvin — 9HA2782 — position and weather

sailwx.info

Track history (hours):
 
Tides and Currents Weather Stations Pressure Air Temp Water Temp Dewpoint Dewpoint Depression Visibility Wind Speed Wind Dir Waves Ship Positions

Artvin

Last reported at 2015-Jun-29 14:26 UTC. Time now 2015-Aug-05 04:19 UTC.
Position N 38°38' W 017°21'.
Warning: this ship's position is 36 days out of date.

Length 229 m; draft 9.3 m.

Type: Cargo ship. MMSI: 215678000.

Date/timePositionNaut miles runAvg speedWind from/ knotsBaromVisibWave heightAir tempDewpointWater temp
2015-Jun-29 14:26N 38°38' W 017°21'1210.0
2015-Jun-29 13:11N 38°48' W 017°11'7 9.9
2015-Jun-29 12:27N 38°54' W 017°05'9 9.5
2015-Jun-29 11:33N 39°00' W 016°58'13 9.9
2015-Jun-29 10:15N 39°10' W 016°48'7 9.8
2015-Jun-29 09:33N 39°16' W 016°42'79 9.9
2015-Jun-29 01:32N 40°18' W 015°39'1110.1
2015-Jun-29 00:25N 40°26' W 015°29'1010.5
2015-Jun-28 23:27N 40°35' W 015°21'910.0
2015-Jun-28 22:32N 40°42' W 015°14'1010.0
2015-Jun-28 21:30N 40°49' W 015°05'20 9.8
2015-Jun-28 19:29N 41°05' W 014°49'9 9.4
2015-Jun-28 18:33N 41°12' W 014°41'1210.1
2015-Jun-28 17:20N 41°22' W 014°31'12 9.9
2015-Jun-28 16:06N 41°31' W 014°21'62 9.5
2015-Jun-28 09:33N 42°20' W 013°29'453 9.2
2015-Jun-26 08:33N 48°15' W 006°49'70 9.5
2015-Jun-26 01:12N 49°09' W 005°41'78 9.0
2015-Jun-25 16:32N 49°51' W 004°00'9 9.5
2015-Jun-25 15:32N 49°53' W 003°46'9 9.3
2015-Jun-25 14:33N 49°55' W 003°32'9 9.2
2015-Jun-25 13:33N 49°56' W 003°18'9 9.2
2015-Jun-25 12:33N 49°58' W 003°04'9 9.3
2015-Jun-25 11:33N 49°60' W 002°50'10 9.8
2015-Jun-25 10:33N 50°03' W 002°35'1010.4
2015-Jun-25 09:33N 50°05' W 002°20'1111.3
2015-Jun-25 08:33N 50°09' W 002°03'1211.9
2015-Jun-25 07:33N 50°12' W 001°45'1411.9
2015-Jun-25 06:23N 50°16' W 001°24'911.4
2015-Jun-25 05:33N 50°18' W 001°10'1010.4
2015-Jun-25 04:33N 50°21' W 000°54'9 9.1
2015-Jun-25 03:33N 50°24' W 000°40'9 8.6
2015-Jun-25 02:33N 50°26' W 000°27'9 8.6
2015-Jun-25 01:33N 50°29' W 000°14'9 9.0
2015-Jun-25 00:32N 50°31' W 000°01'10 9.6
2015-Jun-24 23:32N 50°34' E 000°14'1010.5
2015-Jun-24 22:33N 50°36' E 000°30'1110.7
2015-Jun-24 21:33N 50°42' E 000°44'1110.6
2015-Jun-24 20:33N 50°48' E 000°58'1010.0
2015-Jun-24 19:33N 50°54' E 001°10'9 9.0
2015-Jun-24 18:34N 51°00' E 001°20'8 8.1
2015-Jun-24 17:33N 51°05' E 001°30'8 8.5
2015-Jun-24 16:33N 51°11' E 001°40'9 8.8
2015-Jun-24 15:33N 51°18' E 001°50'1010.1
2015-Jun-24 14:33N 51°26' E 001°58'1110.7
2015-Jun-24 13:33N 51°35' E 002°07'1010.5
2015-Jun-24 12:33N 51°43' E 002°18'20 9.8
2015-Jun-24 10:30N 51°58' E 002°40'17 8.8
2015-Jun-24 08:32N 52°03' E 003°07'10 9.2
2015-Jun-24 07:28N 52°04' E 003°23'9 8.9
2015-Jun-24 06:30N 52°04' E 003°37'9 9.2
2015-Jun-24 05:33N 52°04' E 003°51'7 7.1
2015-Jun-24 04:33N 52°01' E 004°01'5 4.8
2015-Jun-24 03:31N 51°58' E 004°08'0 0.0
2015-Jun-24 02:31N 51°58' E 004°08'0 0.0
2015-Jun-24 01:31N 51°58' E 004°08'0 0.0
2015-Jun-24 00:31N 51°58' E 004°08'0 0.0
2015-Jun-23 23:31N 51°58' E 004°08'0 0.0
2015-Jun-23 22:31N 51°58' E 004°08'0 0.0
2015-Jun-23 21:31N 51°58' E 004°08'0 0.0
2015-Jun-23 20:31N 51°58' E 004°08'0 0.0
2015-Jun-23 19:31N 51°58' E 004°08'0 0.0
2015-Jun-23 19:04N 51°58' E 004°08'0 0.0
2015-Jun-22 19:31N 51°58' E 004°08'0 0.0
2015-Jun-22 18:31N 51°58' E 004°08'0 0.0
2015-Jun-22 17:31N 51°58' E 004°08'0 0.0
2015-Jun-22 16:31N 51°58' E 004°08'0 0.0
2015-Jun-22 15:31N 51°58' E 004°08'0 0.0
2015-Jun-22 14:31N 51°58' E 004°08'0 0.0
2015-Jun-22 13:31N 51°58' E 004°08'0 0.0
2015-Jun-22 12:28N 51°58' E 004°08'0 0.0
2015-Jun-22 11:31N 51°58' E 004°08'0 0.0
2015-Jun-22 10:31N 51°58' E 004°08'0 0.0
2015-Jun-22 09:31N 51°58' E 004°08'0 0.0
2015-Jun-22 08:31N 51°58' E 004°08'0 0.0
2015-Jun-22 07:31N 51°58' E 004°08'0 0.0
2015-Jun-22 06:31N 51°58' E 004°08'0 0.0
2015-Jun-22 05:31N 51°58' E 004°08'0 0.0
2015-Jun-22 04:31N 51°58' E 004°08'0 0.0
2015-Jun-22 03:31N 51°58' E 004°08'0 0.0
2015-Jun-22 02:31N 51°58' E 004°08'0 0.0
2015-Jun-22 01:31N 51°58' E 004°08'0 0.0
2015-Jun-22 00:31N 51°58' E 004°08'0 0.0
2015-Jun-21 23:31N 51°58' E 004°08'0 0.0
2015-Jun-21 22:31N 51°58' E 004°08'0 0.0
2015-Jun-21 21:31N 51°58' E 004°08'0 0.0
2015-Jun-21 20:31N 51°58' E 004°08'0 0.0
2015-Jun-21 19:31N 51°58' E 004°08'0 0.0
2015-Jun-21 18:31N 51°58' E 004°08'0 0.0
2015-Jun-21 17:31N 51°58' E 004°08'0 0.0
2015-Jun-21 16:31N 51°58' E 004°08'0 0.0
2015-Jun-21 15:31N 51°58' E 004°08'0 0.0
2015-Jun-21 14:31N 51°58' E 004°08'0 0.0
2015-Jun-21 13:31N 51°58' E 004°08'0 0.0
2015-Jun-21 12:31N 51°58' E 004°08'0 0.0
2015-Jun-21 11:31N 51°58' E 004°08'0 0.0
2015-Jun-21 10:31N 51°58' E 004°08'0 0.0
2015-Jun-21 09:31N 51°58' E 004°08'0 0.0
2015-Jun-21 08:31N 51°58' E 004°08'0 0.0
2015-Jun-21 07:31N 51°58' E 004°08'0 0.0
2015-Jun-21 06:31N 51°58' E 004°08'0 0.0
2015-Jun-21 05:31N 51°58' E 004°08'0 0.0
2015-Jun-21 04:31N 51°58' E 004°08'0 0.0
2015-Jun-21 03:31N 51°58' E 004°08'0 0.0
2015-Jun-21 02:31N 51°58' E 004°08'0 0.0
2015-Jun-21 01:31N 51°58' E 004°08'0 0.0
2015-Jun-21 00:31N 51°58' E 004°08'0 0.0
2015-Jun-20 23:31N 51°58' E 004°08'0 0.0
2015-Jun-20 22:31N 51°58' E 004°08'0 0.0
2015-Jun-20 21:31N 51°58' E 004°08'0 0.0
2015-Jun-20 20:31N 51°58' E 004°08'0 0.0
2015-Jun-20 19:31N 51°58' E 004°08'0 0.0
2015-Jun-20 18:31N 51°58' E 004°08'0 0.0
2015-Jun-20 17:31N 51°58' E 004°08'0 0.0
2015-Jun-20 16:28N 51°58' E 004°08'0 0.0
2015-Jun-20 15:31N 51°58' E 004°08'0 0.0
2015-Jun-20 14:31N 51°58' E 004°08'0 0.0
2015-Jun-20 13:31N 51°58' E 004°08'0 0.0
2015-Jun-20 12:31N 51°58' E 004°08'0 0.0
2015-Jun-20 11:31N 51°58' E 004°08'0 0.0
2015-Jun-20 10:31N 51°58' E 004°08'0 0.0
2015-Jun-20 09:31N 51°58' E 004°08'0 0.0
2015-Jun-20 08:31N 51°58' E 004°08'0 0.0
2015-Jun-20 07:31N 51°58' E 004°08'0 0.0
2015-Jun-20 06:31N 51°58' E 004°08'0 0.0
2015-Jun-20 05:31N 51°58' E 004°08'0 0.0
2015-Jun-20 04:31N 51°58' E 004°08'0 0.0
2015-Jun-20 03:31N 51°58' E 004°08'0 0.0
2015-Jun-20 02:31N 51°58' E 004°08'0 0.0
2015-Jun-20 01:31N 51°58' E 004°08'0 0.0
2015-Jun-20 00:31N 51°58' E 004°08'0 0.0
2015-Jun-19 23:31N 51°58' E 004°08'0 0.0
2015-Jun-19 22:31N 51°58' E 004°08'0 0.0
2015-Jun-19 21:31N 51°58' E 004°08'0 0.0
2015-Jun-19 20:31N 51°58' E 004°08'0 0.0
2015-Jun-19 19:31N 51°58' E 004°08'0 0.0
2015-Jun-19 18:31N 51°58' E 004°08'0 0.0
2015-Jun-19 17:31N 51°58' E 004°08'0 0.0
2015-Jun-19 16:31N 51°58' E 004°08'0 0.0
2015-Jun-19 15:31N 51°58' E 004°08'0 0.0
2015-Jun-19 14:31N 51°58' E 004°08'  
Track history (hours):
 
Tides and Currents Weather Stations Pressure Air Temp Water Temp Dewpoint Dewpoint Depression Visibility Wind Speed Wind Dir Waves Ship Positions

Artvin

Last reported at 2015-Jun-29 14:26 UTC. Time now 2015-Aug-05 04:19 UTC.
Position N 38°38' W 017°21'.
Warning: this ship's position is 36 days out of date.

Length 229 m; draft 9.3 m.

Type: Cargo ship. MMSI: 215678000.

Date/timePositionNaut miles runAvg speedWind from/ knotsBaromVisibWave heightAir tempDewpointWater temp
2015-Jun-29 14:26N 38°38' W 017°21'1210.0
2015-Jun-29 13:11N 38°48' W 017°11'7 9.9
2015-Jun-29 12:27N 38°54' W 017°05'9 9.5
2015-Jun-29 11:33N 39°00' W 016°58'13 9.9
2015-Jun-29 10:15N 39°10' W 016°48'7 9.8
2015-Jun-29 09:33N 39°16' W 016°42'79 9.9
2015-Jun-29 01:32N 40°18' W 015°39'1110.1
2015-Jun-29 00:25N 40°26' W 015°29'1010.5
2015-Jun-28 23:27N 40°35' W 015°21'910.0
2015-Jun-28 22:32N 40°42' W 015°14'1010.0
2015-Jun-28 21:30N 40°49' W 015°05'20 9.8
2015-Jun-28 19:29N 41°05' W 014°49'9 9.4
2015-Jun-28 18:33N 41°12' W 014°41'1210.1
2015-Jun-28 17:20N 41°22' W 014°31'12 9.9
2015-Jun-28 16:06N 41°31' W 014°21'62 9.5
2015-Jun-28 09:33N 42°20' W 013°29'453 9.2
2015-Jun-26 08:33N 48°15' W 006°49'70 9.5
2015-Jun-26 01:12N 49°09' W 005°41'78 9.0
2015-Jun-25 16:32N 49°51' W 004°00'9 9.5
2015-Jun-25 15:32N 49°53' W 003°46'9 9.3
2015-Jun-25 14:33N 49°55' W 003°32'9 9.2
2015-Jun-25 13:33N 49°56' W 003°18'9 9.2
2015-Jun-25 12:33N 49°58' W 003°04'9 9.3
2015-Jun-25 11:33N 49°60' W 002°50'10 9.8
2015-Jun-25 10:33N 50°03' W 002°35'1010.4
2015-Jun-25 09:33N 50°05' W 002°20'1111.3
2015-Jun-25 08:33N 50°09' W 002°03'1211.9
2015-Jun-25 07:33N 50°12' W 001°45'1411.9
2015-Jun-25 06:23N 50°16' W 001°24'911.4
2015-Jun-25 05:33N 50°18' W 001°10'1010.4
2015-Jun-25 04:33N 50°21' W 000°54'9 9.1
2015-Jun-25 03:33N 50°24' W 000°40'9 8.6
2015-Jun-25 02:33N 50°26' W 000°27'9 8.6
2015-Jun-25 01:33N 50°29' W 000°14'9 9.0
2015-Jun-25 00:32N 50°31' W 000°01'10 9.6
2015-Jun-24 23:32N 50°34' E 000°14'1010.5
2015-Jun-24 22:33N 50°36' E 000°30'1110.7
2015-Jun-24 21:33N 50°42' E 000°44'1110.6
2015-Jun-24 20:33N 50°48' E 000°58'1010.0
2015-Jun-24 19:33N 50°54' E 001°10'9 9.0
2015-Jun-24 18:34N 51°00' E 001°20'8 8.1
2015-Jun-24 17:33N 51°05' E 001°30'8 8.5
2015-Jun-24 16:33N 51°11' E 001°40'9 8.8
2015-Jun-24 15:33N 51°18' E 001°50'1010.1
2015-Jun-24 14:33N 51°26' E 001°58'1110.7
2015-Jun-24 13:33N 51°35' E 002°07'1010.5
2015-Jun-24 12:33N 51°43' E 002°18'20 9.8
2015-Jun-24 10:30N 51°58' E 002°40'17 8.8
2015-Jun-24 08:32N 52°03' E 003°07'10 9.2
2015-Jun-24 07:28N 52°04' E 003°23'9 8.9
2015-Jun-24 06:30N 52°04' E 003°37'9 9.2
2015-Jun-24 05:33N 52°04' E 003°51'7 7.1
2015-Jun-24 04:33N 52°01' E 004°01'5 4.8
2015-Jun-24 03:31N 51°58' E 004°08'0 0.0
2015-Jun-24 02:31N 51°58' E 004°08'0 0.0
2015-Jun-24 01:31N 51°58' E 004°08'0 0.0
2015-Jun-24 00:31N 51°58' E 004°08'0 0.0
2015-Jun-23 23:31N 51°58' E 004°08'0 0.0
2015-Jun-23 22:31N 51°58' E 004°08'0 0.0
2015-Jun-23 21:31N 51°58' E 004°08'0 0.0
2015-Jun-23 20:31N 51°58' E 004°08'0 0.0
2015-Jun-23 19:31N 51°58' E 004°08'0 0.0
2015-Jun-23 19:04N 51°58' E 004°08'0 0.0
2015-Jun-22 19:31N 51°58' E 004°08'0 0.0
2015-Jun-22 18:31N 51°58' E 004°08'0 0.0
2015-Jun-22 17:31N 51°58' E 004°08'0 0.0
2015-Jun-22 16:31N 51°58' E 004°08'0 0.0
2015-Jun-22 15:31N 51°58' E 004°08'0 0.0
2015-Jun-22 14:31N 51°58' E 004°08'0 0.0
2015-Jun-22 13:31N 51°58' E 004°08'0 0.0
2015-Jun-22 12:28N 51°58' E 004°08'0 0.0
2015-Jun-22 11:31N 51°58' E 004°08'0 0.0
2015-Jun-22 10:31N 51°58' E 004°08'0 0.0
2015-Jun-22 09:31N 51°58' E 004°08'0 0.0
2015-Jun-22 08:31N 51°58' E 004°08'0 0.0
2015-Jun-22 07:31N 51°58' E 004°08'0 0.0
2015-Jun-22 06:31N 51°58' E 004°08'0 0.0
2015-Jun-22 05:31N 51°58' E 004°08'0 0.0
2015-Jun-22 04:31N 51°58' E 004°08'0 0.0
2015-Jun-22 03:31N 51°58' E 004°08'0 0.0
2015-Jun-22 02:31N 51°58' E 004°08'0 0.0
2015-Jun-22 01:31N 51°58' E 004°08'0 0.0
2015-Jun-22 00:31N 51°58' E 004°08'0 0.0
2015-Jun-21 23:31N 51°58' E 004°08'0 0.0
2015-Jun-21 22:31N 51°58' E 004°08'0 0.0
2015-Jun-21 21:31N 51°58' E 004°08'0 0.0
2015-Jun-21 20:31N 51°58' E 004°08'0 0.0
2015-Jun-21 19:31N 51°58' E 004°08'0 0.0
2015-Jun-21 18:31N 51°58' E 004°08'0 0.0
2015-Jun-21 17:31N 51°58' E 004°08'0 0.0
2015-Jun-21 16:31N 51°58' E 004°08'0 0.0
2015-Jun-21 15:31N 51°58' E 004°08'0 0.0
2015-Jun-21 14:31N 51°58' E 004°08'0 0.0
2015-Jun-21 13:31N 51°58' E 004°08'0 0.0
2015-Jun-21 12:31N 51°58' E 004°08'0 0.0
2015-Jun-21 11:31N 51°58' E 004°08'0 0.0
2015-Jun-21 10:31N 51°58' E 004°08'0 0.0
2015-Jun-21 09:31N 51°58' E 004°08'0 0.0
2015-Jun-21 08:31N 51°58' E 004°08'0 0.0
2015-Jun-21 07:31N 51°58' E 004°08'0 0.0
2015-Jun-21 06:31N 51°58' E 004°08'0 0.0
2015-Jun-21 05:31N 51°58' E 004°08'0 0.0
2015-Jun-21 04:31N 51°58' E 004°08'0 0.0
2015-Jun-21 03:31N 51°58' E 004°08'0 0.0
2015-Jun-21 02:31N 51°58' E 004°08'0 0.0
2015-Jun-21 01:31N 51°58' E 004°08'0 0.0
2015-Jun-21 00:31N 51°58' E 004°08'0 0.0
2015-Jun-20 23:31N 51°58' E 004°08'0 0.0
2015-Jun-20 22:31N 51°58' E 004°08'0 0.0
2015-Jun-20 21:31N 51°58' E 004°08'0 0.0
2015-Jun-20 20:31N 51°58' E 004°08'0 0.0
2015-Jun-20 19:31N 51°58' E 004°08'0 0.0
2015-Jun-20 18:31N 51°58' E 004°08'0 0.0
2015-Jun-20 17:31N 51°58' E 004°08'0 0.0
2015-Jun-20 16:28N 51°58' E 004°08'0 0.0
2015-Jun-20 15:31N 51°58' E 004°08'0 0.0
2015-Jun-20 14:31N 51°58' E 004°08'0 0.0
2015-Jun-20 13:31N 51°58' E 004°08'0 0.0
2015-Jun-20 12:31N 51°58' E 004°08'0 0.0
2015-Jun-20 11:31N 51°58' E 004°08'0 0.0
2015-Jun-20 10:31N 51°58' E 004°08'0 0.0
2015-Jun-20 09:31N 51°58' E 004°08'0 0.0
2015-Jun-20 08:31N 51°58' E 004°08'0 0.0
2015-Jun-20 07:31N 51°58' E 004°08'0 0.0
2015-Jun-20 06:31N 51°58' E 004°08'0 0.0
2015-Jun-20 05:31N 51°58' E 004°08'0 0.0
2015-Jun-20 04:31N 51°58' E 004°08'0 0.0
2015-Jun-20 03:31N 51°58' E 004°08'0 0.0
2015-Jun-20 02:31N 51°58' E 004°08'0 0.0
2015-Jun-20 01:31N 51°58' E 004°08'0 0.0
2015-Jun-20 00:31N 51°58' E 004°08'0 0.0
2015-Jun-19 23:31N 51°58' E 004°08'0 0.0
2015-Jun-19 22:31N 51°58' E 004°08'0 0.0
2015-Jun-19 21:31N 51°58' E 004°08'0 0.0
2015-Jun-19 20:31N 51°58' E 004°08'0 0.0
2015-Jun-19 19:31N 51°58' E 004°08'0 0.0
2015-Jun-19 18:31N 51°58' E 004°08'0 0.0
2015-Jun-19 17:31N 51°58' E 004°08'0 0.0
2015-Jun-19 16:31N 51°58' E 004°08'0 0.0
2015-Jun-19 15:31N 51°58' E 004°08'0 0.0
2015-Jun-19 14:31N 51°58' E 004°08'  

Dump ship's entire track history